sensor_id;sensor_type;location;lat;lon;timestamp;P1;durP1;ratioP1;P2;durP2;ratioP2
21360;SDS011;10839;43.206;23.550;2023-04-05T00:00:45;29.48;;;17.05;;
21360;SDS011;10839;43.206;23.550;2023-04-05T00:03:12;31.40;;;17.35;;
21360;SDS011;10839;43.206;23.550;2023-04-05T00:05:38;28.60;;;16.95;;
21360;SDS011;10839;43.206;23.550;2023-04-05T00:08:04;28.63;;;16.70;;
21360;SDS011;10839;43.206;23.550;2023-04-05T00:10:37;29.48;;;16.20;;
21360;SDS011;10839;43.206;23.550;2023-04-05T00:13:04;26.15;;;16.15;;
21360;SDS011;10839;43.206;23.550;2023-04-05T00:15:31;27.52;;;16.63;;
21360;SDS011;10839;43.206;23.550;2023-04-05T00:17:57;26.83;;;16.73;;
21360;SDS011;10839;43.206;23.550;2023-04-05T00:20:24;28.25;;;16.95;;
21360;SDS011;10839;43.206;23.550;2023-04-05T00:22:51;28.67;;;16.55;;
21360;SDS011;10839;43.206;23.550;2023-04-05T00:25:17;25.92;;;16.45;;
21360;SDS011;10839;43.206;23.550;2023-04-05T00:27:44;28.02;;;16.38;;
21360;SDS011;10839;43.206;23.550;2023-04-05T00:30:10;28.40;;;17.20;;
21360;SDS011;10839;43.206;23.550;2023-04-05T00:32:37;27.00;;;16.55;;
21360;SDS011;10839;43.206;23.550;2023-04-05T00:35:03;25.58;;;15.68;;
21360;SDS011;10839;43.206;23.550;2023-04-05T00:37:29;27.48;;;17.10;;
21360;SDS011;10839;43.206;23.550;2023-04-05T00:39:57;29.05;;;17.02;;
21360;SDS011;10839;43.206;23.550;2023-04-05T00:42:22;26.67;;;16.63;;
21360;SDS011;10839;43.206;23.550;2023-04-05T00:44:48;30.63;;;15.90;;
21360;SDS011;10839;43.206;23.550;2023-04-05T00:47:14;26.92;;;15.65;;
21360;SDS011;10839;43.206;23.550;2023-04-05T00:49:41;23.35;;;14.77;;
21360;SDS011;10839;43.206;23.550;2023-04-05T00:52:07;25.10;;;13.85;;
21360;SDS011;10839;43.206;23.550;2023-04-05T00:54:33;24.70;;;15.07;;
21360;SDS011;10839;43.206;23.550;2023-04-05T00:56:59;25.65;;;15.20;;
21360;SDS011;10839;43.206;23.550;2023-04-05T00:59:26;25.90;;;15.20;;
21360;SDS011;10839;43.206;23.550;2023-04-05T01:01:57;24.05;;;14.63;;
21360;SDS011;10839;43.206;23.550;2023-04-05T01:04:29;21.75;;;13.48;;
21360;SDS011;10839;43.206;23.550;2023-04-05T01:07:22;25.20;;;14.20;;
21360;SDS011;10839;43.206;23.550;2023-04-05T01:09:55;22.85;;;13.90;;
21360;SDS011;10839;43.206;23.550;2023-04-05T01:12:25;22.75;;;14.20;;
21360;SDS011;10839;43.206;23.550;2023-04-05T01:14:57;24.65;;;14.55;;
21360;SDS011;10839;43.206;23.550;2023-04-05T01:17:26;26.13;;;14.23;;
21360;SDS011;10839;43.206;23.550;2023-04-05T01:20:02;27.35;;;13.70;;
21360;SDS011;10839;43.206;23.550;2023-04-05T01:36:54;19.95;;;12.32;;
21360;SDS011;10839;43.206;23.550;2023-04-05T01:39:22;21.00;;;12.80;;
21360;SDS011;10839;43.206;23.550;2023-04-05T01:41:50;20.15;;;12.93;;
21360;SDS011;10839;43.206;23.550;2023-04-05T01:44:17;22.67;;;13.90;;
21360;SDS011;10839;43.206;23.550;2023-04-05T01:46:42;24.17;;;13.85;;
21360;SDS011;10839;43.206;23.550;2023-04-05T01:49:09;22.95;;;13.23;;
21360;SDS011;10839;43.206;23.550;2023-04-05T01:51:35;23.10;;;13.48;;
21360;SDS011;10839;43.206;23.550;2023-04-05T01:54:21;22.98;;;14.38;;
21360;SDS011;10839;43.206;23.550;2023-04-05T01:56:47;24.75;;;13.80;;
21360;SDS011;10839;43.206;23.550;2023-04-05T01:59:13;23.00;;;14.13;;
21360;SDS011;10839;43.206;23.550;2023-04-05T02:01:39;23.63;;;14.02;;
21360;SDS011;10839;43.206;23.550;2023-04-05T02:04:06;22.63;;;14.43;;
21360;SDS011;10839;43.206;23.550;2023-04-05T02:06:32;22.45;;;13.70;;
21360;SDS011;10839;43.206;23.550;2023-04-05T02:09:00;23.83;;;14.68;;
21360;SDS011;10839;43.206;23.550;2023-04-05T02:11:26;23.98;;;14.50;;
21360;SDS011;10839;43.206;23.550;2023-04-05T02:13:56;22.65;;;14.63;;
21360;SDS011;10839;43.206;23.550;2023-04-05T02:16:22;25.75;;;14.48;;
21360;SDS011;10839;43.206;23.550;2023-04-05T02:18:50;23.63;;;14.60;;
21360;SDS011;10839;43.206;23.550;2023-04-05T02:21:16;21.65;;;13.95;;
21360;SDS011;10839;43.206;23.550;2023-04-05T02:23:42;24.20;;;13.65;;
21360;SDS011;10839;43.206;23.550;2023-04-05T02:26:09;24.98;;;15.27;;
21360;SDS011;10839;43.206;23.550;2023-04-05T02:28:39;22.30;;;13.68;;
21360;SDS011;10839;43.206;23.550;2023-04-05T02:31:11;21.50;;;13.82;;
21360;SDS011;10839;43.206;23.550;2023-04-05T02:33:41;23.23;;;14.20;;
21360;SDS011;10839;43.206;23.550;2023-04-05T02:36:07;25.55;;;14.95;;
21360;SDS011;10839;43.206;23.550;2023-04-05T02:38:35;26.77;;;14.88;;
21360;SDS011;10839;43.206;23.550;2023-04-05T02:41:02;25.05;;;14.32;;
21360;SDS011;10839;43.206;23.550;2023-04-05T02:43:29;24.63;;;15.32;;
21360;SDS011;10839;43.206;23.550;2023-04-05T02:45:55;24.63;;;14.93;;
21360;SDS011;10839;43.206;23.550;2023-04-05T02:48:22;26.40;;;15.43;;
21360;SDS011;10839;43.206;23.550;2023-04-05T02:50:51;22.90;;;14.30;;
21360;SDS011;10839;43.206;23.550;2023-04-05T02:53:18;25.45;;;14.88;;
21360;SDS011;10839;43.206;23.550;2023-04-05T02:55:52;24.95;;;15.23;;
21360;SDS011;10839;43.206;23.550;2023-04-05T02:58:20;22.48;;;13.02;;
21360;SDS011;10839;43.206;23.550;2023-04-05T03:00:47;22.30;;;14.10;;
21360;SDS011;10839;43.206;23.550;2023-04-05T03:03:26;22.75;;;13.88;;
21360;SDS011;10839;43.206;23.550;2023-04-05T03:05:58;22.73;;;14.23;;
21360;SDS011;10839;43.206;23.550;2023-04-05T03:08:37;22.60;;;14.07;;
21360;SDS011;10839;43.206;23.550;2023-04-05T03:11:11;24.25;;;14.30;;
21360;SDS011;10839;43.206;23.550;2023-04-05T03:13:39;23.15;;;13.70;;
21360;SDS011;10839;43.206;23.550;2023-04-05T03:16:12;21.75;;;13.80;;
21360;SDS011;10839;43.206;23.550;2023-04-05T03:18:40;23.67;;;14.45;;
21360;SDS011;10839;43.206;23.550;2023-04-05T03:21:08;22.63;;;13.68;;
21360;SDS011;10839;43.206;23.550;2023-04-05T03:23:38;20.77;;;12.65;;
21360;SDS011;10839;43.206;23.550;2023-04-05T03:26:04;22.58;;;14.25;;
21360;SDS011;10839;43.206;23.550;2023-04-05T03:28:35;22.98;;;13.65;;
21360;SDS011;10839;43.206;23.550;2023-04-05T03:31:06;22.63;;;13.73;;
21360;SDS011;10839;43.206;23.550;2023-04-05T03:33:34;23.85;;;13.45;;
21360;SDS011;10839;43.206;23.550;2023-04-05T03:36:02;21.15;;;13.32;;
21360;SDS011;10839;43.206;23.550;2023-04-05T03:38:34;24.67;;;13.95;;
21360;SDS011;10839;43.206;23.550;2023-04-05T03:41:19;24.83;;;14.95;;
21360;SDS011;10839;43.206;23.550;2023-04-05T03:43:45;23.67;;;14.73;;
21360;SDS011;10839;43.206;23.550;2023-04-05T03:46:13;27.70;;;14.88;;
21360;SDS011;10839;43.206;23.550;2023-04-05T03:48:40;26.80;;;15.98;;
21360;SDS011;10839;43.206;23.550;2023-04-05T03:51:08;24.63;;;14.55;;
21360;SDS011;10839;43.206;23.550;2023-04-05T03:53:33;27.55;;;14.73;;
21360;SDS011;10839;43.206;23.550;2023-04-05T03:55:59;25.75;;;15.75;;
21360;SDS011;10839;43.206;23.550;2023-04-05T03:58:44;28.02;;;15.50;;
21360;SDS011;10839;43.206;23.550;2023-04-05T04:01:12;30.23;;;15.02;;
21360;SDS011;10839;43.206;23.550;2023-04-05T04:03:39;24.45;;;15.45;;
21360;SDS011;10839;43.206;23.550;2023-04-05T04:06:05;26.70;;;15.98;;
21360;SDS011;10839;43.206;23.550;2023-04-05T04:08:32;25.58;;;14.93;;
21360;SDS011;10839;43.206;23.550;2023-04-05T04:10:59;23.63;;;14.10;;
21360;SDS011;10839;43.206;23.550;2023-04-05T04:13:35;21.90;;;14.18;;
21360;SDS011;10839;43.206;23.550;2023-04-05T04:16:07;26.75;;;15.70;;
21360;SDS011;10839;43.206;23.550;2023-04-05T04:18:51;25.60;;;15.52;;
21360;SDS011;10839;43.206;23.550;2023-04-05T04:21:35;28.40;;;16.60;;
21360;SDS011;10839;43.206;23.550;2023-04-05T04:24:22;28.25;;;17.05;;
21360;SDS011;10839;43.206;23.550;2023-04-05T04:27:06;35.92;;;17.48;;
21360;SDS011;10839;43.206;23.550;2023-04-05T04:29:37;35.03;;;18.10;;
21360;SDS011;10839;43.206;23.550;2023-04-05T04:32:17;33.85;;;18.65;;
21360;SDS011;10839;43.206;23.550;2023-04-05T04:35:11;22.47;;;12.50;;
21360;SDS011;10839;43.206;23.550;2023-04-05T04:38:06;27.67;;;15.95;;
21360;SDS011;10839;43.206;23.550;2023-04-05T04:40:48;28.15;;;15.45;;
21360;SDS011;10839;43.206;23.550;2023-04-05T04:43:23;27.80;;;16.50;;
21360;SDS011;10839;43.206;23.550;2023-04-05T04:46:03;29.80;;;16.83;;
21360;SDS011;10839;43.206;23.550;2023-04-05T04:48:52;30.73;;;17.45;;
21360;SDS011;10839;43.206;23.550;2023-04-05T04:51:31;28.55;;;15.80;;
21360;SDS011;10839;43.206;23.550;2023-04-05T04:53:58;32.60;;;18.15;;
21360;SDS011;10839;43.206;23.550;2023-04-05T04:56:24;34.38;;;18.15;;
21360;SDS011;10839;43.206;23.550;2023-04-05T04:58:53;36.65;;;19.35;;
21360;SDS011;10839;43.206;23.550;2023-04-05T05:01:21;41.60;;;20.85;;
21360;SDS011;10839;43.206;23.550;2023-04-05T05:03:49;32.75;;;19.00;;
21360;SDS011;10839;43.206;23.550;2023-04-05T05:06:20;33.75;;;19.13;;
21360;SDS011;10839;43.206;23.550;2023-04-05T05:08:48;42.20;;;23.10;;
21360;SDS011;10839;43.206;23.550;2023-04-05T05:11:14;35.53;;;20.42;;
21360;SDS011;10839;43.206;23.550;2023-04-05T05:13:41;27.80;;;16.67;;
21360;SDS011;10839;43.206;23.550;2023-04-05T05:16:11;32.97;;;18.17;;
21360;SDS011;10839;43.206;23.550;2023-04-05T05:18:38;28.92;;;16.75;;
21360;SDS011;10839;43.206;23.550;2023-04-05T05:21:05;29.20;;;16.98;;
21360;SDS011;10839;43.206;23.550;2023-04-05T05:23:31;32.17;;;17.45;;
21360;SDS011;10839;43.206;23.550;2023-04-05T05:25:57;32.25;;;18.15;;
21360;SDS011;10839;43.206;23.550;2023-04-05T05:28:25;31.58;;;18.67;;
21360;SDS011;10839;43.206;23.550;2023-04-05T05:30:51;31.10;;;17.17;;
21360;SDS011;10839;43.206;23.550;2023-04-05T05:33:17;29.30;;;16.67;;
21360;SDS011;10839;43.206;23.550;2023-04-05T05:35:46;25.80;;;16.48;;
21360;SDS011;10839;43.206;23.550;2023-04-05T05:38:13;26.88;;;16.83;;
21360;SDS011;10839;43.206;23.550;2023-04-05T05:40:39;30.23;;;16.55;;
21360;SDS011;10839;43.206;23.550;2023-04-05T05:43:05;25.90;;;15.48;;
21360;SDS011;10839;43.206;23.550;2023-04-05T05:45:31;31.08;;;17.77;;
21360;SDS011;10839;43.206;23.550;2023-04-05T05:47:57;28.08;;;16.45;;
21360;SDS011;10839;43.206;23.550;2023-04-05T05:50:22;38.28;;;19.73;;
21360;SDS011;10839;43.206;23.550;2023-04-05T05:52:48;29.38;;;18.25;;
21360;SDS011;10839;43.206;23.550;2023-04-05T05:55:14;28.60;;;16.10;;
21360;SDS011;10839;43.206;23.550;2023-04-05T05:57:41;24.65;;;14.60;;
21360;SDS011;10839;43.206;23.550;2023-04-05T06:00:07;24.83;;;15.15;;
21360;SDS011;10839;43.206;23.550;2023-04-05T06:02:37;26.10;;;14.57;;
21360;SDS011;10839;43.206;23.550;2023-04-05T06:05:05;30.25;;;15.35;;
21360;SDS011;10839;43.206;23.550;2023-04-05T06:07:34;25.58;;;15.35;;
21360;SDS011;10839;43.206;23.550;2023-04-05T06:10:03;25.73;;;14.93;;
21360;SDS011;10839;43.206;23.550;2023-04-05T06:12:30;27.10;;;15.75;;
21360;SDS011;10839;43.206;23.550;2023-04-05T06:14:55;27.25;;;16.15;;
21360;SDS011;10839;43.206;23.550;2023-04-05T06:17:21;30.15;;;15.82;;
21360;SDS011;10839;43.206;23.550;2023-04-05T06:19:47;32.05;;;16.27;;
21360;SDS011;10839;43.206;23.550;2023-04-05T06:22:14;31.60;;;16.50;;
21360;SDS011;10839;43.206;23.550;2023-04-05T06:24:42;25.92;;;15.40;;
21360;SDS011;10839;43.206;23.550;2023-04-05T06:27:08;25.65;;;14.25;;
21360;SDS011;10839;43.206;23.550;2023-04-05T06:29:36;23.92;;;15.77;;
21360;SDS011;10839;43.206;23.550;2023-04-05T06:32:03;21.35;;;13.88;;
21360;SDS011;10839;43.206;23.550;2023-04-05T06:34:29;21.40;;;14.35;;
21360;SDS011;10839;43.206;23.550;2023-04-05T06:36:55;26.65;;;14.80;;
21360;SDS011;10839;43.206;23.550;2023-04-05T06:39:21;21.75;;;13.48;;
21360;SDS011;10839;43.206;23.550;2023-04-05T06:41:47;21.70;;;13.68;;
21360;SDS011;10839;43.206;23.550;2023-04-05T06:44:14;22.05;;;14.52;;
21360;SDS011;10839;43.206;23.550;2023-04-05T06:46:40;23.30;;;14.75;;
21360;SDS011;10839;43.206;23.550;2023-04-05T06:49:05;20.88;;;13.07;;
21360;SDS011;10839;43.206;23.550;2023-04-05T06:51:31;18.85;;;12.15;;
21360;SDS011;10839;43.206;23.550;2023-04-05T06:53:57;23.90;;;14.02;;
21360;SDS011;10839;43.206;23.550;2023-04-05T06:56:24;41.00;;;16.70;;
21360;SDS011;10839;43.206;23.550;2023-04-05T06:58:50;23.23;;;13.50;;
21360;SDS011;10839;43.206;23.550;2023-04-05T07:01:16;17.75;;;11.55;;
21360;SDS011;10839;43.206;23.550;2023-04-05T07:03:42;22.75;;;13.32;;
21360;SDS011;10839;43.206;23.550;2023-04-05T07:06:07;19.92;;;12.38;;
21360;SDS011;10839;43.206;23.550;2023-04-05T07:08:34;18.30;;;12.57;;
21360;SDS011;10839;43.206;23.550;2023-04-05T07:11:00;27.92;;;13.13;;
21360;SDS011;10839;43.206;23.550;2023-04-05T07:13:26;19.17;;;12.70;;
21360;SDS011;10839;43.206;23.550;2023-04-05T07:15:58;20.45;;;13.25;;
21360;SDS011;10839;43.206;23.550;2023-04-05T07:18:26;13.93;;;8.32;;
21360;SDS011;10839;43.206;23.550;2023-04-05T07:20:55;15.82;;;9.88;;
21360;SDS011;10839;43.206;23.550;2023-04-05T07:23:26;15.98;;;10.50;;
21360;SDS011;10839;43.206;23.550;2023-04-05T07:25:53;17.73;;;11.02;;
21360;SDS011;10839;43.206;23.550;2023-04-05T07:28:19;14.25;;;7.78;;
21360;SDS011;10839;43.206;23.550;2023-04-05T07:30:45;8.95;;;6.25;;
21360;SDS011;10839;43.206;23.550;2023-04-05T07:33:11;9.05;;;5.93;;
21360;SDS011;10839;43.206;23.550;2023-04-05T07:35:37;8.75;;;6.68;;
21360;SDS011;10839;43.206;23.550;2023-04-05T07:38:03;11.18;;;7.03;;
21360;SDS011;10839;43.206;23.550;2023-04-05T07:40:29;9.45;;;7.53;;
21360;SDS011;10839;43.206;23.550;2023-04-05T07:42:55;11.73;;;7.25;;
21360;SDS011;10839;43.206;23.550;2023-04-05T07:45:21;13.13;;;8.10;;
21360;SDS011;10839;43.206;23.550;2023-04-05T07:47:47;16.30;;;8.32;;
21360;SDS011;10839;43.206;23.550;2023-04-05T07:50:13;12.65;;;8.60;;
21360;SDS011;10839;43.206;23.550;2023-04-05T07:52:40;13.75;;;8.27;;
21360;SDS011;10839;43.206;23.550;2023-04-05T07:55:06;13.07;;;7.65;;
21360;SDS011;10839;43.206;23.550;2023-04-05T07:57:35;12.75;;;8.15;;
21360;SDS011;10839;43.206;23.550;2023-04-05T08:00:02;10.98;;;7.60;;
21360;SDS011;10839;43.206;23.550;2023-04-05T08:02:38;11.60;;;7.90;;
21360;SDS011;10839;43.206;23.550;2023-04-05T08:05:05;13.95;;;8.50;;
21360;SDS011;10839;43.206;23.550;2023-04-05T08:07:31;15.90;;;9.38;;
21360;SDS011;10839;43.206;23.550;2023-04-05T08:09:57;17.00;;;10.77;;
21360;SDS011;10839;43.206;23.550;2023-04-05T08:12:24;17.23;;;11.63;;
21360;SDS011;10839;43.206;23.550;2023-04-05T08:14:50;18.90;;;12.23;;
21360;SDS011;10839;43.206;23.550;2023-04-05T08:17:16;18.85;;;11.13;;
21360;SDS011;10839;43.206;23.550;2023-04-05T08:19:42;17.35;;;10.55;;
21360;SDS011;10839;43.206;23.550;2023-04-05T08:22:08;24.60;;;13.88;;
21360;SDS011;10839;43.206;23.550;2023-04-05T08:24:36;47.95;;;26.77;;
21360;SDS011;10839;43.206;23.550;2023-04-05T08:27:01;60.58;;;34.30;;
21360;SDS011;10839;43.206;23.550;2023-04-05T08:29:27;26.65;;;15.52;;
21360;SDS011;10839;43.206;23.550;2023-04-05T08:31:55;21.80;;;13.00;;
21360;SDS011;10839;43.206;23.550;2023-04-05T08:34:23;17.20;;;10.77;;
21360;SDS011;10839;43.206;23.550;2023-04-05T08:36:48;22.73;;;15.80;;
21360;SDS011;10839;43.206;23.550;2023-04-05T08:39:15;21.30;;;12.52;;
21360;SDS011;10839;43.206;23.550;2023-04-05T08:41:45;17.08;;;9.88;;
21360;SDS011;10839;43.206;23.550;2023-04-05T08:44:21;15.18;;;9.48;;
21360;SDS011;10839;43.206;23.550;2023-04-05T08:46:50;30.70;;;16.33;;
21360;SDS011;10839;43.206;23.550;2023-04-05T08:49:18;165.25;;;75.50;;
21360;SDS011;10839;43.206;23.550;2023-04-05T08:51:44;111.47;;;58.47;;
21360;SDS011;10839;43.206;23.550;2023-04-05T08:54:10;63.00;;;34.83;;
21360;SDS011;10839;43.206;23.550;2023-04-05T08:56:35;21.38;;;11.80;;
21360;SDS011;10839;43.206;23.550;2023-04-05T08:59:07;19.55;;;13.27;;
21360;SDS011;10839;43.206;23.550;2023-04-05T09:01:36;17.35;;;11.20;;
21360;SDS011;10839;43.206;23.550;2023-04-05T09:04:07;14.50;;;9.52;;
21360;SDS011;10839;43.206;23.550;2023-04-05T09:06:38;16.70;;;10.05;;
21360;SDS011;10839;43.206;23.550;2023-04-05T09:09:06;16.00;;;10.30;;
21360;SDS011;10839;43.206;23.550;2023-04-05T09:11:33;16.35;;;9.45;;
21360;SDS011;10839;43.206;23.550;2023-04-05T09:14:04;16.80;;;9.18;;
21360;SDS011;10839;43.206;23.550;2023-04-05T09:16:32;15.98;;;10.48;;
21360;SDS011;10839;43.206;23.550;2023-04-05T09:19:01;13.60;;;9.40;;
21360;SDS011;10839;43.206;23.550;2023-04-05T09:21:27;18.52;;;10.00;;
21360;SDS011;10839;43.206;23.550;2023-04-05T09:23:56;14.48;;;9.15;;
21360;SDS011;10839;43.206;23.550;2023-04-05T09:26:24;16.67;;;9.50;;
21360;SDS011;10839;43.206;23.550;2023-04-05T09:28:57;15.77;;;9.90;;
21360;SDS011;10839;43.206;23.550;2023-04-05T09:31:33;20.25;;;12.57;;
21360;SDS011;10839;43.206;23.550;2023-04-05T09:34:06;15.07;;;9.97;;
21360;SDS011;10839;43.206;23.550;2023-04-05T09:36:33;24.75;;;13.43;;
21360;SDS011;10839;43.206;23.550;2023-04-05T09:39:05;22.77;;;11.63;;
21360;SDS011;10839;43.206;23.550;2023-04-05T09:41:32;22.48;;;12.60;;
21360;SDS011;10839;43.206;23.550;2023-04-05T09:43:59;15.43;;;9.40;;
21360;SDS011;10839;43.206;23.550;2023-04-05T09:46:33;15.02;;;9.20;;
21360;SDS011;10839;43.206;23.550;2023-04-05T09:49:05;19.27;;;10.10;;
21360;SDS011;10839;43.206;23.550;2023-04-05T09:51:35;22.13;;;10.65;;
21360;SDS011;10839;43.206;23.550;2023-04-05T09:54:07;19.52;;;10.90;;
21360;SDS011;10839;43.206;23.550;2023-04-05T09:56:35;17.00;;;10.05;;
21360;SDS011;10839;43.206;23.550;2023-04-05T09:59:07;14.05;;;9.82;;
21360;SDS011;10839;43.206;23.550;2023-04-05T10:01:35;16.00;;;9.68;;
21360;SDS011;10839;43.206;23.550;2023-04-05T10:04:04;38.55;;;19.75;;
21360;SDS011;10839;43.206;23.550;2023-04-05T10:06:37;29.65;;;14.95;;
21360;SDS011;10839;43.206;23.550;2023-04-05T10:09:04;10.80;;;7.38;;
21360;SDS011;10839;43.206;23.550;2023-04-05T10:11:31;13.40;;;8.48;;
21360;SDS011;10839;43.206;23.550;2023-04-05T10:14:05;10.93;;;6.13;;
21360;SDS011;10839;43.206;23.550;2023-04-05T10:16:52;10.90;;;6.85;;
21360;SDS011;10839;43.206;23.550;2023-04-05T10:19:58;8.50;;;6.00;;
21360;SDS011;10839;43.206;23.550;2023-04-05T10:22:44;6.68;;;4.85;;
21360;SDS011;10839;43.206;23.550;2023-04-05T10:28:34;7.60;;;4.10;;
21360;SDS011;10839;43.206;23.550;2023-04-05T10:33:49;6.95;;;4.53;;
21360;SDS011;10839;43.206;23.550;2023-04-05T10:39:03;19.42;;;8.18;;
21360;SDS011;10839;43.206;23.550;2023-04-05T10:41:33;22.27;;;8.73;;
21360;SDS011;10839;43.206;23.550;2023-04-05T10:44:09;19.02;;;8.73;;
21360;SDS011;10839;43.206;23.550;2023-04-05T10:46:35;11.27;;;5.35;;
21360;SDS011;10839;43.206;23.550;2023-04-05T10:49:10;9.20;;;5.30;;
21360;SDS011;10839;43.206;23.550;2023-04-05T10:51:55;10.80;;;6.22;;
21360;SDS011;10839;43.206;23.550;2023-04-05T10:54:22;5.40;;;4.25;;
21360;SDS011;10839;43.206;23.550;2023-04-05T10:56:49;6.50;;;4.65;;
21360;SDS011;10839;43.206;23.550;2023-04-05T10:59:16;6.20;;;4.53;;
21360;SDS011;10839;43.206;23.550;2023-04-05T11:01:44;11.52;;;5.00;;
21360;SDS011;10839;43.206;23.550;2023-04-05T11:04:14;7.03;;;4.95;;
21360;SDS011;10839;43.206;23.550;2023-04-05T11:06:41;10.02;;;4.40;;
21360;SDS011;10839;43.206;23.550;2023-04-05T11:09:09;10.45;;;4.55;;
21360;SDS011;10839;43.206;23.550;2023-04-05T11:11:45;13.30;;;6.70;;
21360;SDS011;10839;43.206;23.550;2023-04-05T11:16:45;10.07;;;6.53;;
21360;SDS011;10839;43.206;23.550;2023-04-05T11:19:16;45.53;;;23.27;;
21360;SDS011;10839;43.206;23.550;2023-04-05T11:21:42;16.63;;;9.45;;
21360;SDS011;10839;43.206;23.550;2023-04-05T11:24:11;11.43;;;6.80;;
21360;SDS011;10839;43.206;23.550;2023-04-05T11:29:07;12.00;;;6.70;;
21360;SDS011;10839;43.206;23.550;2023-04-05T11:31:34;8.65;;;5.10;;
21360;SDS011;10839;43.206;23.550;2023-04-05T11:34:03;8.73;;;4.93;;
21360;SDS011;10839;43.206;23.550;2023-04-05T11:36:41;5.45;;;3.38;;
21360;SDS011;10839;43.206;23.550;2023-04-05T11:41:43;6.95;;;3.22;;
21360;SDS011;10839;43.206;23.550;2023-04-05T11:44:14;7.38;;;3.85;;
21360;SDS011;10839;43.206;23.550;2023-04-05T11:46:41;6.28;;;2.65;;
21360;SDS011;10839;43.206;23.550;2023-04-05T11:49:07;4.53;;;2.60;;
21360;SDS011;10839;43.206;23.550;2023-04-05T11:51:33;4.57;;;3.22;;
21360;SDS011;10839;43.206;23.550;2023-04-05T11:53:59;3.58;;;2.42;;
21360;SDS011;10839;43.206;23.550;2023-04-05T11:56:26;5.78;;;3.50;;
21360;SDS011;10839;43.206;23.550;2023-04-05T11:58:56;46.85;;;26.15;;
21360;SDS011;10839;43.206;23.550;2023-04-05T12:01:24;50.70;;;25.98;;
21360;SDS011;10839;43.206;23.550;2023-04-05T12:03:53;42.47;;;22.98;;
21360;SDS011;10839;43.206;23.550;2023-04-05T12:06:21;15.98;;;9.15;;
21360;SDS011;10839;43.206;23.550;2023-04-05T12:08:48;7.20;;;4.65;;
21360;SDS011;10839;43.206;23.550;2023-04-05T12:11:27;13.30;;;6.13;;
21360;SDS011;10839;43.206;23.550;2023-04-05T12:13:57;10.50;;;5.88;;
21360;SDS011;10839;43.206;23.550;2023-04-05T12:16:26;10.55;;;4.30;;
21360;SDS011;10839;43.206;23.550;2023-04-05T12:18:53;12.48;;;4.93;;
21360;SDS011;10839;43.206;23.550;2023-04-05T12:21:20;19.55;;;7.78;;
21360;SDS011;10839;43.206;23.550;2023-04-05T12:23:47;19.98;;;8.57;;
21360;SDS011;10839;43.206;23.550;2023-04-05T12:26:14;20.23;;;9.32;;
21360;SDS011;10839;43.206;23.550;2023-04-05T12:31:17;9.90;;;5.90;;
21360;SDS011;10839;43.206;23.550;2023-04-05T12:33:59;7.28;;;5.10;;
21360;SDS011;10839;43.206;23.550;2023-04-05T12:36:29;9.48;;;5.60;;
21360;SDS011;10839;43.206;23.550;2023-04-05T12:38:58;15.13;;;8.02;;
21360;SDS011;10839;43.206;23.550;2023-04-05T12:41:29;14.00;;;7.10;;
21360;SDS011;10839;43.206;23.550;2023-04-05T12:43:56;9.57;;;5.32;;
21360;SDS011;10839;43.206;23.550;2023-04-05T12:49:12;6.35;;;4.60;;
21360;SDS011;10839;43.206;23.550;2023-04-05T12:51:49;9.35;;;5.85;;
21360;SDS011;10839;43.206;23.550;2023-04-05T12:54:22;11.35;;;6.60;;
21360;SDS011;10839;43.206;23.550;2023-04-05T12:56:49;18.53;;;11.47;;
21360;SDS011;10839;43.206;23.550;2023-04-05T12:59:17;109.15;;;57.65;;
21360;SDS011;10839;43.206;23.550;2023-04-05T13:01:43;24.40;;;12.82;;
21360;SDS011;10839;43.206;23.550;2023-04-05T13:04:10;33.38;;;15.63;;
21360;SDS011;10839;43.206;23.550;2023-04-05T13:06:35;12.38;;;7.25;;
21360;SDS011;10839;43.206;23.550;2023-04-05T13:09:01;9.95;;;5.88;;
21360;SDS011;10839;43.206;23.550;2023-04-05T13:11:28;5.78;;;4.47;;
21360;SDS011;10839;43.206;23.550;2023-04-05T13:13:53;6.95;;;4.30;;
21360;SDS011;10839;43.206;23.550;2023-04-05T13:16:19;10.80;;;6.63;;
21360;SDS011;10839;43.206;23.550;2023-04-05T13:18:45;11.65;;;7.00;;
21360;SDS011;10839;43.206;23.550;2023-04-05T13:21:12;9.80;;;5.93;;
21360;SDS011;10839;43.206;23.550;2023-04-05T13:23:38;10.02;;;6.10;;
21360;SDS011;10839;43.206;23.550;2023-04-05T13:26:06;11.23;;;6.68;;
21360;SDS011;10839;43.206;23.550;2023-04-05T13:28:33;12.00;;;7.43;;
21360;SDS011;10839;43.206;23.550;2023-04-05T13:31:01;11.20;;;7.45;;
21360;SDS011;10839;43.206;23.550;2023-04-05T13:33:30;10.57;;;7.38;;
21360;SDS011;10839;43.206;23.550;2023-04-05T13:35:58;10.38;;;6.43;;
21360;SDS011;10839;43.206;23.550;2023-04-05T13:38:26;12.25;;;7.45;;
21360;SDS011;10839;43.206;23.550;2023-04-05T13:40:52;24.92;;;12.50;;
21360;SDS011;10839;43.206;23.550;2023-04-05T13:43:18;11.80;;;6.75;;
21360;SDS011;10839;43.206;23.550;2023-04-05T13:45:44;13.95;;;7.72;;
21360;SDS011;10839;43.206;23.550;2023-04-05T13:48:10;12.95;;;8.02;;
21360;SDS011;10839;43.206;23.550;2023-04-05T13:50:36;15.45;;;7.82;;
21360;SDS011;10839;43.206;23.550;2023-04-05T13:53:02;13.13;;;7.85;;
21360;SDS011;10839;43.206;23.550;2023-04-05T13:55:28;10.35;;;7.47;;
21360;SDS011;10839;43.206;23.550;2023-04-05T13:57:54;12.55;;;8.27;;
21360;SDS011;10839;43.206;23.550;2023-04-05T14:00:19;18.30;;;8.82;;
21360;SDS011;10839;43.206;23.550;2023-04-05T14:02:45;20.65;;;10.77;;
21360;SDS011;10839;43.206;23.550;2023-04-05T14:05:13;21.52;;;13.20;;
21360;SDS011;10839;43.206;23.550;2023-04-05T14:07:40;27.60;;;15.65;;
21360;SDS011;10839;43.206;23.550;2023-04-05T14:10:06;24.65;;;14.43;;
21360;SDS011;10839;43.206;23.550;2023-04-05T14:12:33;19.35;;;9.70;;
21360;SDS011;10839;43.206;23.550;2023-04-05T14:15:01;14.85;;;8.90;;
21360;SDS011;10839;43.206;23.550;2023-04-05T14:17:26;15.30;;;8.85;;
21360;SDS011;10839;43.206;23.550;2023-04-05T14:19:52;11.10;;;7.43;;
21360;SDS011;10839;43.206;23.550;2023-04-05T14:22:18;18.15;;;9.05;;
21360;SDS011;10839;43.206;23.550;2023-04-05T14:24:45;13.65;;;8.52;;
21360;SDS011;10839;43.206;23.550;2023-04-05T14:27:11;11.60;;;7.68;;
21360;SDS011;10839;43.206;23.550;2023-04-05T14:29:37;13.88;;;8.70;;
21360;SDS011;10839;43.206;23.550;2023-04-05T14:32:04;13.48;;;8.38;;
21360;SDS011;10839;43.206;23.550;2023-04-05T14:34:30;22.70;;;11.18;;
21360;SDS011;10839;43.206;23.550;2023-04-05T14:36:56;20.15;;;10.95;;
21360;SDS011;10839;43.206;23.550;2023-04-05T14:39:24;27.65;;;12.48;;
21360;SDS011;10839;43.206;23.550;2023-04-05T14:41:50;18.90;;;11.00;;
21360;SDS011;10839;43.206;23.550;2023-04-05T14:44:16;16.27;;;9.77;;
21360;SDS011;10839;43.206;23.550;2023-04-05T14:46:42;16.92;;;10.05;;
21360;SDS011;10839;43.206;23.550;2023-04-05T14:49:09;15.30;;;9.20;;
21360;SDS011;10839;43.206;23.550;2023-04-05T14:51:36;18.15;;;9.10;;
21360;SDS011;10839;43.206;23.550;2023-04-05T14:54:02;15.32;;;9.95;;
21360;SDS011;10839;43.206;23.550;2023-04-05T14:56:28;18.98;;;11.07;;
21360;SDS011;10839;43.206;23.550;2023-04-05T14:58:54;19.52;;;11.65;;